Gainesville Regional Airport
KGNV : now visible

Airfield :











YOU CAN JOIN US ON...

 
LOGIN :

Register | Disclaimer

   EN    FR    IT 

 









Legend :    VFR   Marginal VFR   IFR   Intensive IFR   Very Intensive IFR
Visi :
Ceiling :
>= 8 km
>= 3000ft
5 to 8 km
1000 to 3000 ft
1500m to 5 km
500 to 1000 ft
800 to 1500m
200 to 500 ft
< 800m
< 200 ft
Symbols :   Thunderstorms  Fog  Heavy snow  Heavy precipitations  Wind > 20 kt






- Airport Elevation : 152 ft
- IATA code : GNV


KGNV - Gainesville Regional

CURRENT METAR :
  • 060153Z AUTO 11006KT 10SM SCT020 BKN050 BKN095 18/16 A3009 RMK AO2 SLP188 T01780161

EXPIRED METARs :
  • 060053Z 11004KT 10SM OVC090 18/17 A3007 RMK AO2 SLP182 T01830167
  • 052353Z 00000KT 10SM OVC075 19/16 A3006 RMK AO2 SLP179 T01940161 10217 20194 53007

TAF KGNV
Valid from the 06 at 00:00 until the 07 at 00:00 UTC


052328Z 0600/0624 VRB03KT P6SM SCT045
FM060800 00000KT 4SM BR BKN007
FM061000 00000KT 1 1/2SM BR BKN005
FM061300 VRB03KT P6SM FEW030 SCT250



MET'MAP, your aeronautical weather chart ! - Copyright ORBIFLY December 2007 - Disclaimer

ORBIFLY MET'MAP TEAM :

Programming & Development : Alexandra Zaïnal
Concept & original design : Baudouin d'Aumeries
Assistance for programming : Marc-Olivier Méhu
Technical & hardware support : Manuel Goepfert

Contact : metmap@orbifly.com




SOURCES & CREDITS :

   NOAA       Earth
Advisory